Time;durP1;ratioP1;P1;durP2;ratioP2;P2;SDS_P1;SDS_P2;PMS_P1;PMS_P2;Temp;Humidity;BMP_temperature;BMP_pressure;BME280_temperature;BME280_humidity;BME280_pressure;Samples;Min_cycle;Max_cycle;Signal;HPM_P1;HPM_P2
2022/07/17 00:00:55;;;;;;;7.13;6.53;;;15.30;99.90;;;;;;4925436;29;20259;-80
2022/07/17 00:03:22;;;;;;;7.20;6.50;;;15.30;99.90;;;;;;4934129;29;20656;-79
2022/07/17 00:05:49;;;;;;;6.90;6.20;;;15.30;99.90;;;;;;4929399;29;20212;-80
2022/07/17 00:08:15;;;;;;;6.80;6.17;;;15.20;99.90;;;;;;4919603;29;20263;-79
2022/07/17 00:10:44;;;;;;;7.27;6.53;;;15.20;99.90;;;;;;4929451;29;20271;-79
2022/07/17 00:13:11;;;;;;;6.57;5.97;;;15.20;99.90;;;;;;4925007;29;20630;-80
2022/07/17 00:15:39;;;;;;;7.13;6.43;;;15.10;99.90;;;;;;4917896;29;20291;-80
2022/07/17 00:18:07;;;;;;;6.80;6.20;;;15.10;99.90;;;;;;4936697;29;20545;-80
2022/07/17 00:20:35;;;;;;;7.70;6.90;;;15.10;99.90;;;;;;4925889;29;20207;-80
2022/07/17 00:23:02;;;;;;;6.20;5.70;;;15.10;99.90;;;;;;4935578;29;20254;-80
2022/07/17 00:25:29;;;;;;;6.57;6.07;;;15.00;99.90;;;;;;4930653;29;20261;-81
2022/07/17 00:27:56;;;;;;;7.03;6.33;;;15.00;99.90;;;;;;4928331;29;20203;-80
2022/07/17 00:30:23;;;;;;;6.40;5.90;;;14.90;99.90;;;;;;4930467;29;20209;-80
2022/07/17 00:32:51;;;;;;;6.80;6.20;;;14.90;99.90;;;;;;4940756;29;20215;-80
2022/07/17 00:35:18;;;;;;;6.63;6.13;;;14.90;99.90;;;;;;4942576;29;20277;-81
2022/07/17 00:37:47;;;;;;;6.93;6.30;;;14.90;99.90;;;;;;4934820;29;20205;-80
2022/07/17 00:40:17;;;;;;;7.00;6.30;;;14.80;99.90;;;;;;4946252;29;20628;-81
2022/07/17 00:42:44;;;;;;;6.90;6.30;;;14.80;99.90;;;;;;4920273;29;20208;-80
2022/07/17 00:45:12;;;;;;;6.80;6.20;;;14.80;99.90;;;;;;4930484;29;20242;-81
2022/07/17 00:47:53;;;;;;;7.33;6.73;;;14.80;99.90;;;;;;4944760;28;20197;-81
2022/07/17 00:50:20;;;;;;;7.60;6.70;;;14.80;99.90;;;;;;4940009;29;20210;-80
2022/07/17 00:52:47;;;;;;;7.23;6.53;;;14.70;99.90;;;;;;4940387;29;20259;-80
2022/07/17 00:55:15;;;;;;;6.50;5.90;;;14.70;99.90;;;;;;4940657;29;20277;-81
2022/07/17 00:57:43;;;;;;;7.10;6.40;;;14.60;99.90;;;;;;4936413;29;20209;-79
2022/07/17 01:00:10;;;;;;;6.67;6.13;;;14.60;99.90;;;;;;4920953;29;20202;-80
2022/07/17 01:02:38;;;;;;;6.47;5.87;;;14.60;99.90;;;;;;4933710;29;20200;-80
2022/07/17 01:05:07;;;;;;;6.90;6.30;;;14.60;99.90;;;;;;4926550;29;20246;-80
2022/07/17 01:07:34;;;;;;;7.10;6.50;;;14.50;99.90;;;;;;4923239;29;20258;-79
2022/07/17 01:10:01;;;;;;;7.03;6.43;;;14.40;99.90;;;;;;4924389;29;20211;-81
2022/07/17 01:12:28;;;;;;;6.80;6.20;;;14.40;99.90;;;;;;4916869;29;20692;-81
2022/07/17 01:14:58;;;;;;;6.50;5.90;;;14.40;99.90;;;;;;4918833;29;20749;-78
2022/07/17 01:17:25;;;;;;;6.70;6.10;;;14.40;99.90;;;;;;4925517;29;20691;-80
2022/07/17 01:19:52;;;;;;;7.00;6.33;;;14.30;99.90;;;;;;4927474;29;20203;-80
2022/07/17 01:22:21;;;;;;;6.37;5.87;;;14.30;99.90;;;;;;4928955;29;20214;-80
2022/07/17 01:24:47;;;;;;;6.20;5.70;;;14.30;99.90;;;;;;4926036;29;20266;-81
2022/07/17 01:27:15;;;;;;;6.97;6.30;;;14.30;99.90;;;;;;4946652;29;20202;-80
2022/07/17 01:29:42;;;;;;;6.90;6.30;;;14.20;99.90;;;;;;4930758;29;20210;-81
2022/07/17 01:32:09;;;;;;;7.10;6.40;;;14.20;99.90;;;;;;4925939;29;20207;-80
2022/07/17 01:34:36;;;;;;;6.77;6.17;;;14.10;99.90;;;;;;4916376;29;20278;-80
2022/07/17 01:37:02;;;;;;;7.37;6.67;;;14.10;99.90;;;;;;4941716;29;20278;-80
2022/07/17 01:42:20;;;;;;;6.53;6.03;;;14.10;99.90;;;;;;4910872;29;20233;-81
2022/07/17 01:44:47;;;;;;;7.10;6.47;;;14.10;99.90;;;;;;4926660;29;20223;-81
2022/07/17 01:47:15;;;;;;;6.87;6.23;;;14.10;99.90;;;;;;4927099;29;20744;-80
2022/07/17 01:49:44;;;;;;;6.47;5.97;;;14.00;99.90;;;;;;4942284;29;20198;-80
2022/07/17 01:52:11;;;;;;;7.70;7.00;;;14.00;99.90;;;;;;4924563;29;20203;-80
2022/07/17 01:54:40;;;;;;;7.60;6.77;;;14.00;99.90;;;;;;4923775;29;20309;-80
2022/07/17 01:57:07;;;;;;;7.23;6.53;;;14.00;99.90;;;;;;4925015;29;20265;-80
2022/07/17 01:59:34;;;;;;;7.73;7.03;;;13.90;99.90;;;;;;4915411;29;20211;-80
2022/07/17 02:02:00;;;;;;;7.67;6.87;;;13.90;99.90;;;;;;4909711;29;20633;-81
2022/07/17 02:04:27;;;;;;;7.40;6.80;;;13.80;99.90;;;;;;4941449;29;20307;-81
2022/07/17 02:06:55;;;;;;;7.43;6.73;;;13.80;99.90;;;;;;4921818;29;20211;-79
2022/07/17 02:09:22;;;;;;;7.30;6.70;;;13.80;99.90;;;;;;4943911;29;20207;-80
2022/07/17 02:11:51;;;;;;;7.50;6.90;;;13.80;99.90;;;;;;4928628;29;20206;-80
2022/07/17 02:14:17;;;;;;;7.93;7.10;;;13.80;99.90;;;;;;4925007;29;20238;-80
2022/07/17 02:16:44;;;;;;;7.73;6.93;;;13.80;99.90;;;;;;4939335;29;20262;-80
2022/07/17 02:19:11;;;;;;;7.70;7.00;;;13.70;99.90;;;;;;4926735;29;20199;-81
2022/07/17 02:21:38;;;;;;;8.20;6.80;;;13.60;99.90;;;;;;4929384;29;20207;-80
2022/07/17 02:24:05;;;;;;;7.57;6.80;;;13.60;99.90;;;;;;4936971;29;20784;-80
2022/07/17 02:26:32;;;;;;;7.30;6.70;;;13.60;99.90;;;;;;4926492;29;20203;-80
2022/07/17 02:29:00;;;;;;;7.07;6.47;;;13.60;99.90;;;;;;4930323;29;20609;-80
2022/07/17 02:31:27;;;;;;;7.23;6.53;;;13.50;99.90;;;;;;4937285;29;20208;-81
2022/07/17 02:33:54;;;;;;;7.10;6.50;;;13.50;99.90;;;;;;4917087;29;20283;-80
2022/07/17 02:36:21;;;;;;;7.27;6.67;;;13.50;99.90;;;;;;4912596;29;20250;-80
2022/07/17 02:38:48;;;;;;;7.03;6.43;;;13.40;99.90;;;;;;4934395;29;20202;-80
2022/07/17 02:41:15;;;;;;;7.37;6.77;;;13.40;99.90;;;;;;4916580;29;20211;-80
2022/07/17 02:43:42;;;;;;;7.93;7.23;;;13.40;99.90;;;;;;4939698;29;20318;-81
2022/07/17 02:46:13;;;;;;;8.00;7.30;;;13.40;99.90;;;;;;4949465;29;20203;-80
2022/07/17 02:48:40;;;;;;;7.20;6.60;;;13.30;99.90;;;;;;4923401;29;20757;-81
2022/07/17 02:51:07;;;;;;;7.67;6.93;;;13.30;99.90;;;;;;4931578;29;20204;-81
2022/07/17 02:53:34;;;;;;;7.47;6.87;;;13.30;99.90;;;;;;4930523;29;20323;-80
2022/07/17 02:56:00;;;;;;;7.37;6.73;;;13.20;99.90;;;;;;4938692;29;20203;-81
2022/07/17 02:58:27;;;;;;;7.20;6.53;;;13.20;99.90;;;;;;4927650;29;20257;-78
2022/07/17 03:00:54;;;;;;;7.67;7.07;;;13.10;99.90;;;;;;4912348;29;20250;-80
2022/07/17 03:03:22;;;;;;;7.53;6.87;;;13.10;99.90;;;;;;4919060;29;20238;-80
2022/07/17 03:05:50;;;;;;;7.30;6.70;;;13.10;99.90;;;;;;4930738;29;20212;-78
2022/07/17 03:08:17;;;;;;;7.40;6.67;;;13.00;99.90;;;;;;4914025;29;20206;-80
2022/07/17 03:10:44;;;;;;;7.90;7.20;;;13.00;99.90;;;;;;4945131;28;20206;-78
2022/07/17 03:13:10;;;;;;;8.43;7.63;;;13.00;99.90;;;;;;4933538;29;20203;-78
2022/07/17 03:15:39;;;;;;;8.00;7.33;;;13.00;99.90;;;;;;4921072;29;20236;-78
2022/07/17 03:18:06;;;;;;;8.20;7.40;;;12.90;99.90;;;;;;4945467;29;20268;-79
2022/07/17 03:20:34;;;;;;;8.23;7.53;;;12.90;99.90;;;;;;4917543;29;20570;-77
2022/07/17 03:23:01;;;;;;;8.07;7.37;;;12.90;99.90;;;;;;4941602;29;20198;-79
2022/07/17 03:25:28;;;;;;;8.73;7.83;;;12.80;99.90;;;;;;4932413;29;20204;-80
2022/07/17 03:27:55;;;;;;;8.17;7.37;;;12.80;99.90;;;;;;4928444;29;20216;-77
2022/07/17 03:30:22;;;;;;;8.03;7.33;;;12.80;99.90;;;;;;4921215;29;20202;-79
2022/07/17 03:32:49;;;;;;;8.10;7.37;;;12.80;99.90;;;;;;4921823;29;20213;-78
2022/07/17 03:35:18;;;;;;;8.33;7.60;;;12.80;99.90;;;;;;4945822;29;20806;-78
2022/07/17 03:37:47;;;;;;;8.57;7.73;;;12.80;99.90;;;;;;4921619;29;20606;-82
2022/07/17 03:40:49;;;;;;;7.97;7.27;;;12.80;99.90;;;;;;4918943;29;20740;-79
2022/07/17 03:43:48;;;;;;;9.30;8.40;;;12.80;99.90;;;;;;4916151;29;20594;-78
2022/07/17 03:46:27;;;;;;;9.27;7.90;;;12.80;99.90;;;;;;4920704;29;20221;-80
2022/07/17 03:52:02;;;;;;;8.30;7.50;;;12.70;99.90;;;;;;4915209;29;20281;-77
2022/07/17 03:54:30;;;;;;;8.63;7.83;;;12.70;99.90;;;;;;4934264;29;20767;-77
2022/07/17 03:56:57;;;;;;;8.77;8.00;;;12.80;99.90;;;;;;4931561;29;20785;-78
2022/07/17 03:59:24;;;;;;;8.43;7.70;;;12.80;99.90;;;;;;4924261;29;20199;-79
2022/07/17 04:01:51;;;;;;;8.70;7.80;;;12.80;99.90;;;;;;4919464;29;20214;-80
2022/07/17 04:04:18;;;;;;;8.30;7.60;;;12.80;99.90;;;;;;4948931;29;20281;-79
2022/07/17 04:06:45;;;;;;;8.10;7.40;;;12.80;99.90;;;;;;4937997;29;20646;-80
2022/07/17 04:09:11;;;;;;;8.27;7.47;;;12.90;99.90;;;;;;4937721;29;20198;-79
2022/07/17 04:11:40;;;;;;;8.30;7.60;;;12.90;99.90;;;;;;4943178;29;20211;-80
2022/07/17 04:14:06;;;;;;;8.43;7.63;;;13.00;99.90;;;;;;4947708;29;20750;-80
2022/07/17 04:16:33;;;;;;;8.03;7.33;;;13.10;99.90;;;;;;4939701;29;20213;-80
2022/07/17 04:19:00;;;;;;;8.07;7.37;;;13.10;99.90;;;;;;4942052;29;20274;-81
2022/07/17 04:21:27;;;;;;;7.87;7.17;;;13.10;99.90;;;;;;4950128;29;20210;-79
2022/07/17 04:23:54;;;;;;;7.73;7.13;;;13.20;99.90;;;;;;4935681;28;20260;-80
2022/07/17 04:26:20;;;;;;;7.83;7.10;;;13.20;99.90;;;;;;4917306;29;20217;-78
2022/07/17 04:28:48;;;;;;;8.10;7.40;;;13.20;99.90;;;;;;4924122;29;20812;-78
2022/07/17 04:31:15;;;;;;;7.83;7.13;;;13.30;99.90;;;;;;4948783;29;20624;-79
2022/07/17 04:33:42;;;;;;;7.67;7.07;;;13.30;99.90;;;;;;4920238;29;20931;-78
2022/07/17 04:36:10;;;;;;;7.60;6.90;;;13.30;99.90;;;;;;4931750;29;20650;-79
2022/07/17 04:38:36;;;;;;;7.90;7.20;;;13.40;99.90;;;;;;4930309;29;20255;-78
2022/07/17 04:41:03;;;;;;;7.50;6.90;;;13.40;99.90;;;;;;4916840;29;20210;-78
2022/07/17 04:43:30;;;;;;;7.17;6.57;;;13.50;99.90;;;;;;4937138;29;20231;-79
2022/07/17 04:45:58;;;;;;;7.90;7.10;;;13.60;99.90;;;;;;4935393;29;20199;-78
2022/07/17 04:48:25;;;;;;;7.90;7.20;;;13.70;99.90;;;;;;4922637;29;20210;-78
2022/07/17 04:50:52;;;;;;;7.67;6.97;;;13.70;99.90;;;;;;4935880;29;20681;-79
2022/07/17 04:53:18;;;;;;;7.77;7.17;;;13.90;99.90;;;;;;4918354;29;20223;-78
2022/07/17 04:55:45;;;;;;;7.70;7.00;;;14.00;99.90;;;;;;4928536;29;20215;-78
2022/07/17 04:58:12;;;;;;;8.00;7.30;;;14.10;99.90;;;;;;4929204;29;20210;-78
2022/07/17 05:00:39;;;;;;;7.93;7.13;;;14.30;99.90;;;;;;4916426;29;20208;-78
2022/07/17 05:03:07;;;;;;;7.70;7.10;;;14.40;99.90;;;;;;4915586;29;20997;-80
2022/07/17 05:05:34;;;;;;;7.10;6.50;;;14.50;99.90;;;;;;4927806;29;20587;-79
2022/07/17 05:08:01;;;;;;;6.50;6.00;;;14.60;99.90;;;;;;4931171;29;20196;-79
2022/07/17 05:10:28;;;;;;;7.30;6.80;;;14.70;99.90;;;;;;4921519;29;20708;-78
2022/07/17 05:12:55;;;;;;;6.67;6.17;;;14.90;99.90;;;;;;4935541;29;20205;-77
2022/07/17 05:15:21;;;;;;;6.93;6.33;;;15.00;99.90;;;;;;4938348;29;21964;-78
2022/07/17 05:17:48;;;;;;;7.13;6.43;;;15.30;99.90;;;;;;4927046;29;20207;-78
2022/07/17 05:20:19;;;;;;;6.40;5.90;;;15.40;99.90;;;;;;4922291;29;20255;-78
2022/07/17 05:22:46;;;;;;;6.90;5.73;;;15.50;99.90;;;;;;4936821;29;20226;-78
2022/07/17 05:25:13;;;;;;;6.83;6.23;;;15.60;99.90;;;;;;4932958;29;20304;-78
2022/07/17 05:27:40;;;;;;;6.07;5.57;;;15.80;99.90;;;;;;4925382;29;20227;-77
2022/07/17 05:30:07;;;;;;;5.00;4.60;;;16.00;99.90;;;;;;4931110;29;20206;-78
2022/07/17 05:32:34;;;;;;;3.73;3.40;;;16.20;99.90;;;;;;4933641;29;20257;-77
2022/07/17 05:35:01;;;;;;;3.73;3.43;;;16.30;99.90;;;;;;4930751;29;20229;-78
2022/07/17 05:37:29;;;;;;;6.37;4.10;;;16.40;99.90;;;;;;4922614;29;20217;-78
2022/07/17 05:39:56;;;;;;;4.90;4.40;;;16.50;99.90;;;;;;4928303;29;20216;-78
2022/07/17 05:42:23;;;;;;;4.87;3.83;;;16.60;99.90;;;;;;4916019;29;20203;-78
2022/07/17 05:44:49;;;;;;;4.67;4.23;;;16.70;99.90;;;;;;4942436;29;20222;-77
2022/07/17 05:47:16;;;;;;;5.53;4.20;;;16.90;99.90;;;;;;4937999;29;20200;-78
2022/07/17 05:49:43;;;;;;;5.57;4.70;;;17.30;99.90;;;;;;4933549;29;20237;-77
2022/07/17 05:52:10;;;;;;;6.60;6.00;;;17.60;99.90;;;;;;4936101;29;20262;-76
2022/07/17 05:54:38;;;;;;;4.80;4.37;;;18.30;99.90;;;;;;4923662;29;20297;-75
2022/07/17 05:57:05;;;;;;;6.37;5.77;;;19.00;99.90;;;;;;4920054;29;20787;-76
2022/07/17 05:59:32;;;;;;;6.43;5.83;;;19.80;99.90;;;;;;4938603;29;20210;-76
2022/07/17 06:01:58;;;;;;;5.50;5.00;;;20.50;99.90;;;;;;4921775;29;20206;-76
2022/07/17 06:04:25;;;;;;;6.60;5.77;;;21.00;99.90;;;;;;4933919;29;20719;-76
2022/07/17 06:06:52;;;;;;;6.50;5.90;;;21.30;99.90;;;;;;4930882;29;20643;-75
2022/07/17 06:09:19;;;;;;;7.17;6.57;;;21.70;99.90;;;;;;4928020;29;20257;-76
2022/07/17 06:11:47;;;;;;;4.77;4.03;;;21.80;99.90;;;;;;4939020;29;20203;-76
2022/07/17 06:14:14;;;;;;;7.87;6.73;;;21.80;99.90;;;;;;4935238;29;20250;-75
2022/07/17 06:16:41;;;;;;;5.50;5.00;;;22.00;99.90;;;;;;4931448;29;20767;-75
2022/07/17 06:19:07;;;;;;;4.07;3.70;;;22.10;99.90;;;;;;4926220;29;20203;-76
2022/07/17 06:21:34;;;;;;;5.23;4.60;;;22.30;99.90;;;;;;4933656;29;20258;-75
2022/07/17 06:24:01;;;;;;;6.50;5.90;;;22.20;99.90;;;;;;4934076;29;20222;-76
2022/07/17 06:26:28;;;;;;;7.00;6.40;;;22.00;99.90;;;;;;4932159;29;20201;-76
2022/07/17 06:28:56;;;;;;;5.63;5.13;;;21.60;99.90;;;;;;4942369;29;20258;-76
2022/07/17 06:31:31;;;;;;;5.93;5.43;;;21.80;99.90;;;;;;4940363;29;20206;-76
2022/07/17 06:34:25;;;;;;;4.23;3.20;;;22.10;99.90;;;;;;4982318;23;20286;-76
2022/07/17 06:36:54;;;;;;;5.63;3.43;;;22.60;99.90;;;;;;4991491;28;20584;-77
2022/07/17 06:39:33;;;;;;;4.57;3.40;;;22.80;99.90;;;;;;4987572;28;20207;-77
2022/07/17 06:42:00;;;;;;;5.63;4.80;;;22.90;99.90;;;;;;4988907;28;20205;-77
2022/07/17 06:44:33;;;;;;;6.90;5.43;;;23.10;99.90;;;;;;4983976;28;20301;-76
2022/07/17 06:47:09;;;;;;;5.40;4.90;;;23.20;99.90;;;;;;4972678;28;20206;-76
2022/07/17 06:49:38;;;;;;;3.20;2.90;;;23.40;99.90;;;;;;4974517;28;20214;-76
2022/07/17 06:52:19;;;;;;;4.63;3.30;;;24.00;99.60;;;;;;4978314;28;20233;-77
2022/07/17 06:55:04;;;;;;;4.57;3.30;;;24.60;99.10;;;;;;4972116;28;20695;-76
2022/07/17 06:57:31;;;;;;;4.43;3.17;;;25.00;97.30;;;;;;4974115;28;20662;-76
2022/07/17 06:59:59;;;;;;;7.10;6.40;;;24.70;97.30;;;;;;4974780;28;20213;-76
2022/07/17 07:02:31;;;;;;;4.17;3.77;;;24.50;97.50;;;;;;4968323;28;20253;-77
2022/07/17 07:05:12;;;;;;;4.47;4.10;;;24.60;96.90;;;;;;4988747;28;20304;-77
2022/07/17 07:08:03;;;;;;;5.50;4.87;;;24.80;96.80;;;;;;4972030;28;20293;-77
2022/07/17 07:11:03;;;;;;;6.97;4.83;;;24.90;96.90;;;;;;4971562;28;20201;-77
2022/07/17 07:14:21;;;;;;;5.67;5.10;;;24.90;96.70;;;;;;4974159;28;20225;-78
2022/07/17 07:23:24;;;;;;;7.10;6.50;;;25.40;95.50;;;;;;4966779;28;20224;-77
2022/07/17 07:26:32;;;;;;;5.70;3.67;;;25.20;94.10;;;;;;4984086;28;20225;-77
2022/07/17 07:32:19;;;;;;;8.37;3.30;;;25.40;94.40;;;;;;4899572;29;20274;-77
2022/07/17 07:35:26;;;;;;;6.45;5.35;;;25.70;94.50;;;;;;4972748;28;20283;-78
2022/07/17 07:37:55;;;;;;;6.13;5.30;;;25.50;94.30;;;;;;4983200;28;20273;-76
2022/07/17 07:40:22;;;;;;;4.07;2.57;;;25.60;94.20;;;;;;4973759;28;20260;-79
2022/07/17 07:43:16;;;;;;;6.40;3.20;;;25.90;94.80;;;;;;4972800;28;20731;-78
2022/07/17 07:46:01;;;;;;;5.43;4.23;;;25.90;94.00;;;;;;4952679;28;20226;-79
2022/07/17 07:51:51;;;;;;;5.70;5.20;;;26.20;93.80;;;;;;4969917;28;20272;-79
2022/07/17 07:55:13;;;;;;;5.30;4.80;;;26.00;93.70;;;;;;4966799;28;20277;-77
2022/07/17 07:58:07;;;;;;;4.97;4.50;;;26.00;94.40;;;;;;4872817;29;20227;-79
2022/07/17 08:00:43;;;;;;;5.10;4.70;;;26.50;95.00;;;;;;4930346;28;20675;-79
2022/07/17 08:03:51;;;;;;;6.03;5.43;;;26.70;93.80;;;;;;4968111;28;20206;-78
2022/07/17 08:06:45;;;;;;;5.80;5.30;;;26.60;93.20;;;;;;4974535;28;20224;-78
2022/07/17 08:09:12;;;;;;;5.30;4.80;;;26.90;93.60;;;;;;4998202;23;20229;-78
2022/07/17 08:11:39;;;;;;;4.97;4.57;;;27.00;92.20;;;;;;4987903;28;20194;-78
2022/07/17 08:14:05;;;;;;;6.80;3.57;;;27.10;92.10;;;;;;4994500;28;20197;-78
2022/07/17 08:16:32;;;;;;;5.43;4.90;;;27.00;92.40;;;;;;4992529;28;20796;-76
2022/07/17 08:19:00;;;;;;;5.70;5.20;;;27.00;92.70;;;;;;4989663;28;20225;-79
2022/07/17 08:21:28;;;;;;;4.00;3.37;;;27.20;92.60;;;;;;4974760;28;20906;-76
2022/07/17 08:23:55;;;;;;;4.53;4.20;;;27.20;91.30;;;;;;4975494;28;20260;-76
2022/07/17 08:26:21;;;;;;;4.77;4.27;;;27.20;92.10;;;;;;4972625;28;20206;-75
2022/07/17 08:28:48;;;;;;;5.63;5.10;;;27.30;90.60;;;;;;4962469;28;20637;-76
2022/07/17 08:31:15;;;;;;;5.30;4.90;;;27.00;91.00;;;;;;4965422;28;20202;-76
2022/07/17 08:33:42;;;;;;;2.90;2.60;;;26.50;91.30;;;;;;4966534;28;20230;-76
2022/07/17 08:36:10;;;;;;;3.37;2.37;;;26.90;92.80;;;;;;4970803;28;20711;-75
2022/07/17 08:38:37;;;;;;;3.30;2.87;;;27.40;90.60;;;;;;4969588;28;20218;-76
2022/07/17 08:41:04;;;;;;;4.73;4.33;;;27.70;92.00;;;;;;4971429;28;20197;-76
2022/07/17 08:43:31;;;;;;;4.67;3.47;;;28.20;92.00;;;;;;4969337;28;20202;-75
2022/07/17 08:45:59;;;;;;;4.20;3.90;;;28.10;90.50;;;;;;4973158;28;20234;-76
2022/07/17 08:48:27;;;;;;;5.00;4.60;;;28.20;91.40;;;;;;4983420;28;20244;-76
2022/07/17 08:50:55;;;;;;;5.30;4.97;;;28.50;89.90;;;;;;4974426;28;20232;-76
2022/07/17 08:53:23;;;;;;;5.40;4.90;;;28.50;89.30;;;;;;4962373;28;20210;-76
2022/07/17 08:55:50;;;;;;;8.73;4.80;;;28.90;88.10;;;;;;4971485;28;20225;-76
2022/07/17 08:58:18;;;;;;;5.07;4.67;;;28.80;88.50;;;;;;4965649;28;20237;-76
2022/07/17 09:00:45;;;;;;;5.27;4.87;;;29.10;88.20;;;;;;4973285;28;20208;-77
2022/07/17 09:03:14;;;;;;;5.20;4.80;;;29.20;88.40;;;;;;4985473;28;20273;-76
2022/07/17 09:05:42;;;;;;;4.70;4.40;;;29.20;89.00;;;;;;4977419;28;20257;-77
2022/07/17 09:08:16;;;;;;;5.43;4.93;;;29.50;89.70;;;;;;4965203;28;20285;-78
2022/07/17 09:10:46;;;;;;;4.90;4.50;;;29.50;84.20;;;;;;4981179;28;20261;-78
2022/07/17 09:13:19;;;;;;;4.50;4.10;;;29.20;83.50;;;;;;4965309;28;20198;-77
2022/07/17 09:15:47;;;;;;;4.90;4.50;;;28.80;86.00;;;;;;4993107;28;20221;-78
2022/07/17 09:18:14;;;;;;;5.60;4.77;;;29.10;84.40;;;;;;4968725;28;20296;-79
2022/07/17 09:20:45;;;;;;;5.20;4.70;;;29.00;85.10;;;;;;4978066;28;20297;-78
2022/07/17 09:23:12;;;;;;;5.10;4.70;;;29.40;83.70;;;;;;4974939;28;20281;-79
2022/07/17 09:25:42;;;;;;;4.73;4.33;;;29.60;83.40;;;;;;4980709;28;20200;-77
2022/07/17 09:28:13;;;;;;;4.60;4.30;;;30.00;81.40;;;;;;4970699;28;20206;-81
2022/07/17 09:30:42;;;;;;;5.10;4.65;;;29.40;78.10;;;;;;4983189;28;20481;-78
2022/07/17 09:33:14;;;;;;;5.40;4.53;;;29.30;80.90;;;;;;4985498;28;20280;-76
2022/07/17 09:35:53;;;;;;;5.00;4.68;;;29.60;80.20;;;;;;4974395;28;20450;-78
2022/07/17 09:38:30;;;;;;;5.03;4.68;;;29.30;81.60;;;;;;4965807;28;20521;-76
2022/07/17 09:41:11;;;;;;;5.10;4.60;;;29.40;79.70;;;;;;4976686;28;20201;-76
2022/07/17 09:43:45;;;;;;;4.93;4.63;;;29.70;79.90;;;;;;4969683;28;20300;-77
2022/07/17 09:46:15;;;;;;;6.87;4.70;;;29.30;79.00;;;;;;4971507;28;20573;-78
2022/07/17 09:48:47;;;;;;;5.17;4.77;;;29.30;78.40;;;;;;4970800;28;20221;-78
2022/07/17 09:51:25;;;;;;;5.30;4.90;;;28.90;79.50;;;;;;4991559;28;20618;-78
2022/07/17 09:53:53;;;;;;;5.10;4.70;;;29.00;80.40;;;;;;4975710;28;20945;-77
2022/07/17 09:56:22;;;;;;;5.27;4.77;;;29.30;76.70;;;;;;4986379;28;20257;-78
2022/07/17 09:58:51;;;;;;;6.33;4.60;;;29.40;78.80;;;;;;4973758;28;20222;-77
2022/07/17 10:01:19;;;;;;;5.30;4.80;;;29.30;78.40;;;;;;4973070;28;20206;-77
2022/07/17 10:03:48;;;;;;;4.97;4.67;;;29.50;78.40;;;;;;4973103;28;20590;-79
2022/07/17 10:06:16;;;;;;;4.80;4.50;;;29.50;78.70;;;;;;4972026;28;20667;-77
2022/07/17 10:08:42;;;;;;;5.40;5.00;;;30.00;78.50;;;;;;4972345;28;20233;-77
2022/07/17 10:11:11;;;;;;;4.73;4.40;;;30.10;76.20;;;;;;4971819;28;20204;-78
2022/07/17 10:13:40;;;;;;;5.33;4.93;;;30.40;78.10;;;;;;4969661;28;20230;-77
2022/07/17 10:16:09;;;;;;;5.23;4.87;;;30.10;77.70;;;;;;4971776;28;20221;-78
2022/07/17 10:18:40;;;;;;;5.43;5.00;;;30.20;76.80;;;;;;4980495;28;20284;-77
2022/07/17 10:21:15;;;;;;;4.87;4.57;;;29.80;76.30;;;;;;4966574;28;20206;-77
2022/07/17 10:23:43;;;;;;;5.00;4.70;;;29.90;77.20;;;;;;4969891;28;20202;-77
2022/07/17 10:26:10;;;;;;;5.03;4.70;;;30.00;76.40;;;;;;4973355;28;20430;-79
2022/07/17 10:28:45;;;;;;;4.93;4.60;;;29.90;75.70;;;;;;4970882;28;20461;-76
2022/07/17 10:31:24;;;;;;;4.50;4.17;;;29.30;76.20;;;;;;4969062;28;20205;-76
2022/07/17 10:33:58;;;;;;;2.33;2.13;;;29.40;76.70;;;;;;4966401;28;20702;-76
2022/07/17 10:36:39;;;;;;;3.20;2.97;;;29.10;75.30;;;;;;4986479;28;20222;-77
2022/07/17 10:39:14;;;;;;;2.60;2.40;;;29.00;78.30;;;;;;4967451;28;20260;-77
2022/07/17 10:41:42;;;;;;;2.30;2.10;;;29.10;77.20;;;;;;4968062;28;20206;-78
2022/07/17 10:44:09;;;;;;;2.33;2.07;;;29.20;76.90;;;;;;4975607;28;20186;-77
2022/07/17 10:46:37;;;;;;;3.27;2.50;;;29.00;76.70;;;;;;4971040;28;20205;-77
2022/07/17 10:49:04;;;;;;;2.60;2.13;;;29.10;76.90;;;;;;4978366;28;20225;-77
2022/07/17 10:51:34;;;;;;;2.63;2.10;;;29.10;77.40;;;;;;4979791;28;20253;-80
2022/07/17 10:54:01;;;;;;;3.97;3.67;;;29.10;76.80;;;;;;4979937;28;20284;-79
2022/07/17 10:56:28;;;;;;;2.60;2.40;;;29.00;76.40;;;;;;4993934;28;20222;-76
2022/07/17 10:59:03;;;;;;;4.40;2.50;;;28.80;77.60;;;;;;4975216;28;20241;-77
2022/07/17 11:01:30;;;;;;;3.97;2.20;;;28.30;77.00;;;;;;4992929;28;20260;-76
2022/07/17 11:04:01;;;;;;;3.77;2.50;;;28.10;79.00;;;;;;4977008;28;20569;-79
2022/07/17 11:06:31;;;;;;;3.13;2.93;;;28.00;77.60;;;;;;4974067;28;20762;-79
2022/07/17 11:09:00;;;;;;;3.13;2.93;;;27.90;75.10;;;;;;4967084;28;20324;-77
2022/07/17 11:11:37;;;;;;;4.47;4.10;;;28.10;76.20;;;;;;4973962;28;20213;-77
2022/07/17 11:14:11;;;;;;;4.80;4.40;;;28.00;76.80;;;;;;4966490;28;21139;-76
2022/07/17 11:16:44;;;;;;;4.60;4.30;;;27.80;75.30;;;;;;4968180;28;20220;-77
2022/07/17 11:19:13;;;;;;;4.93;4.53;;;27.80;75.60;;;;;;4989648;28;20229;-78
2022/07/17 11:21:52;;;;;;;4.90;4.40;;;27.90;75.40;;;;;;4983576;28;20202;-78
2022/07/17 11:24:18;;;;;;;2.50;2.30;;;27.50;75.40;;;;;;4972482;28;20268;-76
2022/07/17 11:26:46;;;;;;;3.47;2.13;;;27.50;77.80;;;;;;4975389;28;20205;-76
2022/07/17 11:29:14;;;;;;;2.13;2.03;;;27.50;75.90;;;;;;4968748;28;20221;-76
2022/07/17 11:31:41;;;;;;;3.13;2.03;;;27.40;74.40;;;;;;4978196;28;20202;-78
2022/07/17 11:34:11;;;;;;;2.17;1.97;;;27.50;74.80;;;;;;4973207;28;20198;-75
2022/07/17 11:36:41;;;;;;;2.00;1.80;;;27.70;76.80;;;;;;4980974;28;20242;-78
2022/07/17 11:39:10;;;;;;;1.93;1.83;;;28.00;74.60;;;;;;4980216;28;20249;-77
2022/07/17 11:41:38;;;;;;;2.90;1.80;;;28.00;74.00;;;;;;4987002;28;20252;-78
2022/07/17 11:44:09;;;;;;;1.83;1.73;;;27.90;73.50;;;;;;4986585;28;20210;-78
2022/07/17 11:46:37;;;;;;;2.20;2.00;;;27.90;74.20;;;;;;4995931;28;20209;-77
2022/07/17 11:49:04;;;;;;;1.97;1.87;;;28.00;73.20;;;;;;4986332;28;20241;-79
2022/07/17 11:51:36;;;;;;;2.00;1.90;;;27.90;71.10;;;;;;4987996;28;20206;-78
2022/07/17 11:54:09;;;;;;;2.20;1.87;;;28.00;72.20;;;;;;4984923;28;20237;-78
2022/07/17 11:56:36;;;;;;;1.83;1.63;;;27.80;70.20;;;;;;4982812;28;20910;-78
2022/07/17 11:59:03;;;;;;;2.50;2.30;;;27.80;71.10;;;;;;4982953;28;20217;-78
2022/07/17 12:01:38;;;;;;;2.23;2.00;;;27.60;70.70;;;;;;4982951;28;20209;-78
2022/07/17 12:04:07;;;;;;;1.90;1.80;;;27.60;72.70;;;;;;4982889;28;20214;-77
2022/07/17 12:06:34;;;;;;;2.47;2.27;;;27.90;73.10;;;;;;4984461;28;20205;-78
2022/07/17 12:09:01;;;;;;;2.00;1.80;;;28.00;71.80;;;;;;4977112;28;20229;-77
2022/07/17 12:11:29;;;;;;;2.20;2.00;;;27.90;72.10;;;;;;4980595;28;20194;-77
2022/07/17 12:14:06;;;;;;;1.70;1.57;;;27.70;70.60;;;;;;4985188;28;20203;-77
2022/07/17 12:16:34;;;;;;;1.97;1.87;;;27.60;71.10;;;;;;4976601;28;20253;-78
2022/07/17 12:19:08;;;;;;;2.90;2.70;;;27.40;70.50;;;;;;4989440;28;20245;-77
2022/07/17 12:21:47;;;;;;;3.63;3.37;;;27.70;71.20;;;;;;5002180;28;20723;-78
2022/07/17 12:24:21;;;;;;;4.37;3.97;;;27.60;70.20;;;;;;4975192;28;20205;-77
2022/07/17 12:26:50;;;;;;;4.60;4.30;;;27.60;70.80;;;;;;4982406;28;20305;-77
2022/07/17 12:29:17;;;;;;;4.33;4.03;;;27.70;72.10;;;;;;4978219;28;20604;-78
2022/07/17 12:31:44;;;;;;;4.50;4.10;;;27.60;72.00;;;;;;4985165;28;20228;-77
2022/07/17 12:34:11;;;;;;;4.50;4.20;;;27.70;71.90;;;;;;4977043;28;20190;-78
2022/07/17 12:36:38;;;;;;;4.50;4.20;;;27.70;72.30;;;;;;4994955;28;20277;-78
2022/07/17 12:39:05;;;;;;;4.33;4.03;;;27.80;70.50;;;;;;4978446;28;20641;-78
2022/07/17 12:41:32;;;;;;;4.23;3.97;;;27.70;71.90;;;;;;4985989;28;20297;-78
2022/07/17 12:44:00;;;;;;;4.53;4.13;;;27.80;71.50;;;;;;4985223;28;20666;-78
2022/07/17 12:46:27;;;;;;;4.80;4.37;;;27.80;71.60;;;;;;4975289;28;20262;-78
2022/07/17 12:48:54;;;;;;;4.93;4.53;;;27.90;70.20;;;;;;4986456;28;20226;-78
2022/07/17 12:51:21;;;;;;;4.30;4.00;;;27.90;70.60;;;;;;4987825;28;20194;-78
2022/07/17 12:53:47;;;;;;;4.67;4.27;;;27.70;68.20;;;;;;4978910;28;20681;-79
2022/07/17 12:56:14;;;;;;;4.70;4.37;;;27.50;69.40;;;;;;4977288;28;20205;-80
2022/07/17 12:58:41;;;;;;;4.30;4.00;;;27.50;70.80;;;;;;4976468;28;20717;-78
2022/07/17 13:01:09;;;;;;;4.67;4.27;;;27.50;69.80;;;;;;4974274;28;20202;-78
2022/07/17 13:03:37;;;;;;;2.47;2.03;;;27.40;69.00;;;;;;4975529;28;20629;-78
2022/07/17 13:06:04;;;;;;;3.10;2.10;;;27.40;70.60;;;;;;4970112;28;20262;-78
2022/07/17 13:08:31;;;;;;;1.87;1.77;;;27.40;68.40;;;;;;4967530;28;20265;-78
2022/07/17 13:10:59;;;;;;;1.80;1.70;;;27.40;69.30;;;;;;4970244;28;20197;-78
2022/07/17 13:13:26;;;;;;;2.03;1.83;;;27.40;70.20;;;;;;4967705;28;20233;-78
2022/07/17 13:15:52;;;;;;;2.30;2.10;;;27.60;69.60;;;;;;4977312;28;20208;-78
2022/07/17 13:18:21;;;;;;;1.97;1.87;;;27.60;69.70;;;;;;4975792;28;20241;-81
2022/07/17 13:20:47;;;;;;;2.00;1.90;;;27.60;67.60;;;;;;4971753;28;20205;-79